createdAt,value
2022-11-09T00:04:37.601Z,7.20
2022-11-09T00:12:45.756Z,8.57
2022-11-09T00:15:23.058Z,6.68
2022-11-09T00:17:52.201Z,7.90
2022-11-09T00:20:27.570Z,6.38
2022-11-09T00:22:57.469Z,12.13
2022-11-09T00:25:27.369Z,6.53
2022-11-09T00:28:13.926Z,9.77
2022-11-09T00:31:05.335Z,7.90
2022-11-09T00:33:37.085Z,8.88
2022-11-09T00:36:14.987Z,7.88
2022-11-09T00:39:04.204Z,11.20
2022-11-09T00:43:45.740Z,7.65
2022-11-09T00:49:51.447Z,8.65
2022-11-09T00:53:20.324Z,9.75
2022-11-09T00:56:21.407Z,8.30
2022-11-09T00:58:59.795Z,6.32
2022-11-09T01:01:35.299Z,7.87
2022-11-09T01:04:03.852Z,7.07
2022-11-09T01:09:23.751Z,8.80
2022-11-09T01:11:54.906Z,11.48
2022-11-09T01:14:26.915Z,8.77
2022-11-09T01:22:09.017Z,7.97
2022-11-09T01:24:53.156Z,5.85
2022-11-09T01:27:46.095Z,9.63
2022-11-09T01:30:29.112Z,8.10
2022-11-09T01:33:09.583Z,8.25
2022-11-09T01:35:46.552Z,10.27
2022-11-09T01:38:16.881Z,7.93
2022-11-09T01:41:15.036Z,7.15
2022-11-09T01:44:18.061Z,10.25
2022-11-09T01:47:28.142Z,6.70
2022-11-09T01:50:01.499Z,8.02
2022-11-09T01:52:37.813Z,12.00
2022-11-09T01:56:04.375Z,9.23
2022-11-09T01:59:22.663Z,7.50
2022-11-09T02:02:15.072Z,7.00
2022-11-09T02:05:23.068Z,7.22
2022-11-09T02:08:02.251Z,7.90
2022-11-09T02:10:42.487Z,6.90
2022-11-09T02:13:27.062Z,6.90
2022-11-09T02:16:16.866Z,6.18
2022-11-09T02:20:17.898Z,7.40
2022-11-09T02:22:32.985Z,8.30
2022-11-09T02:25:14.273Z,7.32
2022-11-09T02:27:44.655Z,6.22
2022-11-09T02:30:15.486Z,9.90
2022-11-09T02:32:44.963Z,5.97
2022-11-09T02:35:12.406Z,7.18
2022-11-09T02:37:52.128Z,6.60
2022-11-09T02:40:30.998Z,7.03
2022-11-09T02:43:07.396Z,5.75
2022-11-09T02:45:39.380Z,7.15
2022-11-09T02:48:08.963Z,6.47
2022-11-09T02:50:37.204Z,7.35
2022-11-09T02:53:07.075Z,8.55
2022-11-09T02:55:39.161Z,8.38
2022-11-09T02:58:06.571Z,16.07
2022-11-09T03:00:39.591Z,5.43
2022-11-09T03:03:06.837Z,6.82
2022-11-09T03:05:34.173Z,6.22
2022-11-09T03:08:02.634Z,7.38
2022-11-09T03:10:35.604Z,5.28
2022-11-09T03:13:05.466Z,7.20
2022-11-09T03:15:32.603Z,5.10
2022-11-09T03:17:59.764Z,6.10
2022-11-09T03:20:31.773Z,4.55
2022-11-09T03:23:00.397Z,7.50
2022-11-09T03:25:41.560Z,4.90
2022-11-09T03:28:11.976Z,6.50
2022-11-09T03:30:43.884Z,6.18
2022-11-09T03:33:12.740Z,7.75
2022-11-09T03:35:39.802Z,5.45
2022-11-09T03:38:07.517Z,5.82
2022-11-09T03:40:34.521Z,6.25
2022-11-09T03:43:02.820Z,7.03
2022-11-09T03:45:36.350Z,5.30
2022-11-09T03:50:41.482Z,6.82
2022-11-09T03:53:10.534Z,7.07
2022-11-09T03:55:41.237Z,6.63
2022-11-09T04:00:43.500Z,9.60
2022-11-09T04:03:14.749Z,5.97
2022-11-09T04:05:43.892Z,5.82
2022-11-09T04:08:14.149Z,5.57
2022-11-09T04:10:44.167Z,8.75
2022-11-09T04:13:11.315Z,7.25
2022-11-09T04:15:39.397Z,8.13
2022-11-09T04:18:06.819Z,6.35
2022-11-09T04:20:36.266Z,6.30
2022-11-09T04:23:05.458Z,8.43
2022-11-09T04:25:36.576Z,7.55
2022-11-09T04:28:12.644Z,5.68
2022-11-09T04:30:43.361Z,7.25
2022-11-09T04:33:10.382Z,7.63
2022-11-09T04:35:37.553Z,5.68
2022-11-09T04:38:10.633Z,7.57
2022-11-09T04:40:38.255Z,6.90
2022-11-09T04:43:17.815Z,9.52
2022-11-09T04:45:45.910Z,5.63
2022-11-09T04:48:12.981Z,7.40
2022-11-09T04:50:43.076Z,5.07
2022-11-09T04:53:22.977Z,7.60
2022-11-09T04:55:51.186Z,6.35
2022-11-09T04:58:24.767Z,5.70
2022-11-09T05:00:52.765Z,6.20
2022-11-09T05:03:28.353Z,6.68
2022-11-09T05:05:58.553Z,6.38
2022-11-09T05:08:26.874Z,8.52
2022-11-09T05:13:26.216Z,6.80
2022-11-09T05:15:54.885Z,5.47
2022-11-09T05:18:23.115Z,7.63
2022-11-09T05:20:50.461Z,6.15
2022-11-09T05:23:35.832Z,7.50
2022-11-09T05:26:05.642Z,6.40
2022-11-09T05:28:32.799Z,10.13
2022-11-09T05:30:59.879Z,8.10
2022-11-09T05:33:27.626Z,8.75
2022-11-09T05:35:55.751Z,7.20
2022-11-09T05:38:34.313Z,7.47
2022-11-09T05:41:05.006Z,7.07
2022-11-09T05:43:32.176Z,6.32
2022-11-09T05:46:06.426Z,7.40
2022-11-09T05:48:34.035Z,5.93
2022-11-09T05:51:05.824Z,5.95
2022-11-09T05:53:33.016Z,6.20
2022-11-09T05:56:04.722Z,6.22
2022-11-09T05:58:33.088Z,7.63
2022-11-09T06:01:00.144Z,10.40
2022-11-09T06:03:30.260Z,8.10
2022-11-09T06:06:06.829Z,7.03
2022-11-09T06:08:37.038Z,7.18
2022-11-09T06:11:06.960Z,8.48
2022-11-09T06:13:34.429Z,7.13
2022-11-09T06:16:03.526Z,7.47
2022-11-09T06:18:34.068Z,8.20
2022-11-09T06:21:03.158Z,7.88
2022-11-09T06:23:30.455Z,7.20
2022-11-09T06:25:59.507Z,6.82
2022-11-09T06:28:29.694Z,9.77
2022-11-09T06:31:01.099Z,8.85
2022-11-09T06:33:30.429Z,9.90
2022-11-09T06:35:58.491Z,7.45
2022-11-09T06:38:28.784Z,7.88
2022-11-09T06:40:57.155Z,8.73
2022-11-09T06:43:24.643Z,11.45
2022-11-09T06:45:51.890Z,8.35
2022-11-09T06:48:19.188Z,9.82
2022-11-09T06:50:46.203Z,5.78
2022-11-09T06:53:15.035Z,8.23
2022-11-09T06:55:49.903Z,6.90
2022-11-09T06:58:18.481Z,7.30
2022-11-09T07:00:46.091Z,7.90
2022-11-09T07:03:18.242Z,7.90
2022-11-09T07:05:46.178Z,8.75
2022-11-09T07:08:15.015Z,8.35
2022-11-09T07:10:42.294Z,8.63
2022-11-09T07:13:10.462Z,9.88
2022-11-09T07:15:38.233Z,9.85
2022-11-09T07:18:07.124Z,8.55
2022-11-09T07:20:33.868Z,9.90
2022-11-09T07:23:00.531Z,8.18
2022-11-09T07:25:29.694Z,9.25
2022-11-09T07:28:08.571Z,7.72
2022-11-09T07:30:37.005Z,7.88
2022-11-09T07:33:10.003Z,7.75
2022-11-09T07:35:38.178Z,9.95
2022-11-09T07:38:05.421Z,8.82
2022-11-09T07:40:35.220Z,9.75
2022-11-09T07:43:04.199Z,9.27
2022-11-09T07:45:32.551Z,9.20
2022-11-09T07:48:01.180Z,10.85
2022-11-09T07:50:30.406Z,8.10
2022-11-09T07:52:58.778Z,9.57
2022-11-09T07:55:33.130Z,9.45
2022-11-09T07:58:09.675Z,9.77
2022-11-09T08:00:38.915Z,9.05
2022-11-09T08:03:07.040Z,8.45
2022-11-09T08:05:34.897Z,10.25
2022-11-09T08:08:05.389Z,8.57
2022-11-09T08:10:33.711Z,9.55
2022-11-09T08:13:10.685Z,10.45
2022-11-09T08:15:40.849Z,10.60
2022-11-09T08:18:12.727Z,11.43
2022-11-09T08:20:39.947Z,11.75
2022-11-09T08:23:06.999Z,8.85
2022-11-09T08:25:35.223Z,7.65
2022-11-09T08:28:04.469Z,10.70
2022-11-09T08:30:32.187Z,12.05
2022-11-09T08:33:03.209Z,12.48
2022-11-09T08:35:30.382Z,10.20
2022-11-09T08:38:02.980Z,17.02
2022-11-09T08:40:31.022Z,10.55
2022-11-09T08:43:03.016Z,10.98
2022-11-09T08:45:34.551Z,10.20
2022-11-09T08:48:02.637Z,8.82
2022-11-09T08:50:30.963Z,11.93
2022-11-09T08:52:58.173Z,12.02
2022-11-09T08:55:25.208Z,14.55
2022-11-09T08:58:05.121Z,14.35
2022-11-09T09:00:32.488Z,10.88
2022-11-09T09:03:02.718Z,15.40
2022-11-09T09:05:29.793Z,10.85
2022-11-09T09:07:58.931Z,11.13
2022-11-09T09:10:25.909Z,11.77
2022-11-09T09:12:53.362Z,10.35
2022-11-09T09:15:20.282Z,10.85
2022-11-09T09:17:47.530Z,13.70
2022-11-09T09:20:14.999Z,14.13
2022-11-09T09:22:41.877Z,11.88
2022-11-09T09:25:09.736Z,14.88
2022-11-09T09:27:38.763Z,12.32
2022-11-09T09:30:06.343Z,10.93
2022-11-09T09:32:33.184Z,13.70
2022-11-09T09:35:00.139Z,13.20
2022-11-09T09:37:27.338Z,10.52
2022-11-09T09:39:54.063Z,11.90
2022-11-09T09:42:30.591Z,11.30
2022-11-09T09:45:04.504Z,13.38
2022-11-09T09:47:49.131Z,10.85
2022-11-09T09:50:24.261Z,13.75
2022-11-09T09:53:23.280Z,12.48
2022-11-09T09:56:25.406Z,11.23
2022-11-09T09:59:26.622Z,11.70
2022-11-09T10:01:58.487Z,10.65
2022-11-09T10:04:44.061Z,13.90
2022-11-09T10:07:30.197Z,9.43
2022-11-09T10:10:43.941Z,14.93
2022-11-09T10:13:32.207Z,10.10
2022-11-09T10:16:13.636Z,12.25
2022-11-09T10:19:21.596Z,13.85
2022-11-09T10:22:04.140Z,11.85
2022-11-09T10:25:24.031Z,10.68
2022-11-09T10:28:25.681Z,13.52
2022-11-09T10:30:57.001Z,10.00
2022-11-09T10:33:39.134Z,12.95
2022-11-09T10:36:47.999Z,12.02
2022-11-09T10:39:17.876Z,14.95
2022-11-09T10:41:49.008Z,12.90
2022-11-09T10:44:22.315Z,10.43
2022-11-09T10:47:26.638Z,10.00
2022-11-09T10:50:21.818Z,12.25
2022-11-09T10:52:51.794Z,13.88
2022-11-09T10:55:37.331Z,11.15
2022-11-09T10:58:28.753Z,11.27
2022-11-09T11:03:32.668Z,15.13
2022-11-09T11:06:21.694Z,13.40
2022-11-09T11:09:09.797Z,9.18
2022-11-09T11:11:50.837Z,12.10
2022-11-09T11:14:34.616Z,10.98
2022-11-09T11:17:04.938Z,12.32
2022-11-09T11:19:46.510Z,9.50
2022-11-09T11:22:31.677Z,12.45
2022-11-09T11:26:11.942Z,12.02
2022-11-09T11:28:42.662Z,11.77
2022-11-09T11:34:58.464Z,11.18
2022-11-09T11:38:06.991Z,13.70
2022-11-09T11:40:48.618Z,12.40
2022-11-09T11:43:59.936Z,14.85
2022-11-09T11:46:47.521Z,9.95
2022-11-09T11:49:30.306Z,10.38
2022-11-09T11:52:46.648Z,9.88
2022-11-09T11:55:47.083Z,14.00
2022-11-09T11:59:10.126Z,9.02
2022-11-09T12:01:57.312Z,12.27
2022-11-09T12:05:05.359Z,15.05
2022-11-09T12:08:32.733Z,11.38
2022-11-09T12:11:12.471Z,13.27
2022-11-09T12:13:50.511Z,11.70
2022-11-09T12:16:42.356Z,15.93
2022-11-09T12:19:35.563Z,10.65
2022-11-09T12:22:36.240Z,11.05
2022-11-09T12:34:02.615Z,8.18
2022-11-09T12:36:44.001Z,10.25
2022-11-09T12:39:46.548Z,9.95
2022-11-09T12:47:15.620Z,9.13
2022-11-09T12:49:48.994Z,8.98
2022-11-09T12:52:34.243Z,11.68
2022-11-09T12:55:08.381Z,7.15
2022-11-09T12:57:45.630Z,9.88
2022-11-09T13:00:56.221Z,9.23
2022-11-09T13:03:36.621Z,8.70
2022-11-09T13:06:22.485Z,9.82
2022-11-09T13:11:46.989Z,9.80
2022-11-09T13:14:23.115Z,9.95
2022-11-09T13:16:51.536Z,8.65
2022-11-09T13:19:41.920Z,11.40
2022-11-09T13:22:19.947Z,8.10
2022-11-09T13:25:11.045Z,8.73
2022-11-09T13:27:45.735Z,12.07
2022-11-09T13:30:34.024Z,8.80
2022-11-09T13:33:26.743Z,9.13
2022-11-09T13:40:47.677Z,9.93
2022-11-09T13:43:38.871Z,9.43
2022-11-09T13:46:29.620Z,9.52
2022-11-09T13:49:05.055Z,7.45
2022-11-09T13:51:46.530Z,9.65
2022-11-09T13:54:33.634Z,8.35
2022-11-09T14:04:46.125Z,7.28
2022-11-09T14:07:28.565Z,8.85
2022-11-09T14:10:21.593Z,7.53
2022-11-09T14:13:11.130Z,8.60
2022-11-09T14:16:29.103Z,7.82
2022-11-09T14:19:37.659Z,6.65
2022-11-09T14:22:19.861Z,7.68
2022-11-09T14:25:09.880Z,8.98
2022-11-09T14:28:01.468Z,10.07
2022-11-09T14:30:34.209Z,7.90
2022-11-09T14:35:45.588Z,9.00
2022-11-09T14:38:18.463Z,6.75
2022-11-09T14:40:59.957Z,6.82
2022-11-09T14:43:32.996Z,8.10
2022-11-09T14:46:18.421Z,8.95
2022-11-09T14:49:16.747Z,6.10
2022-11-09T14:54:49.477Z,5.57
2022-11-09T14:58:04.884Z,6.63
2022-11-09T15:00:49.307Z,5.50
2022-11-09T15:08:30.353Z,7.72
2022-11-09T15:11:09.494Z,10.30
2022-11-09T15:13:41.637Z,10.05
2022-11-09T15:16:31.031Z,7.95
2022-11-09T15:19:03.758Z,10.40
2022-11-09T15:21:40.919Z,11.25
2022-11-09T15:24:24.026Z,10.05
2022-11-09T15:26:54.435Z,10.77
2022-11-09T15:32:51.221Z,10.60
2022-11-09T15:39:16.677Z,10.20
2022-11-09T15:42:00.720Z,9.90
2022-11-09T15:44:43.527Z,10.77
2022-11-09T15:47:31.762Z,10.30
2022-11-09T15:50:05.416Z,11.02
2022-11-09T15:52:37.851Z,9.23
2022-11-09T15:55:15.375Z,10.05
2022-11-09T15:57:42.719Z,9.90
2022-11-09T16:00:22.165Z,10.98
2022-11-09T16:02:51.444Z,9.40
2022-11-09T16:05:22.777Z,11.82
2022-11-09T16:08:23.387Z,8.45
2022-11-09T16:11:00.496Z,12.25
2022-11-09T16:13:36.957Z,8.93
2022-11-09T16:28:43.127Z,8.88
2022-11-09T16:40:29.143Z,13.40
2022-11-09T16:43:01.233Z,17.50
2022-11-09T16:45:33.458Z,18.42
2022-11-09T16:48:13.147Z,17.40
2022-11-09T16:50:50.325Z,16.10
2022-11-09T16:57:35.026Z,14.05
2022-11-09T17:03:45.479Z,11.48
2022-11-09T17:06:29.917Z,10.75
2022-11-09T17:09:07.568Z,13.10
2022-11-09T17:11:52.206Z,14.75
2022-11-09T17:14:45.445Z,13.50
2022-11-09T17:17:25.816Z,13.85
2022-11-09T17:20:21.990Z,13.00
2022-11-09T17:22:51.622Z,17.77
2022-11-09T17:25:31.350Z,13.95
2022-11-09T17:28:38.718Z,14.63
2022-11-09T17:31:33.835Z,14.30
2022-11-09T17:34:09.273Z,16.10
2022-11-09T17:37:02.889Z,16.00
2022-11-09T17:39:41.621Z,21.65
2022-11-09T17:42:38.314Z,21.33
2022-11-09T17:45:10.219Z,20.30
2022-11-09T17:47:48.036Z,20.80
2022-11-09T17:50:24.458Z,21.27
2022-11-09T17:52:59.962Z,22.88
2022-11-09T17:56:03.872Z,20.40
2022-11-09T17:58:48.388Z,16.20
2022-11-09T18:01:35.128Z,17.05
2022-11-09T18:07:31.673Z,15.52
2022-11-09T18:10:06.263Z,17.50
2022-11-09T18:12:38.327Z,16.35
2022-11-09T18:15:48.767Z,20.17
2022-11-09T18:18:50.816Z,16.20
2022-11-09T18:21:29.260Z,15.23
2022-11-09T18:24:26.387Z,15.73
2022-11-09T18:27:06.549Z,18.10
2022-11-09T18:29:34.365Z,23.60
2022-11-09T18:32:25.815Z,18.75
2022-11-09T18:35:08.252Z,18.00
2022-11-09T18:37:42.464Z,18.08
2022-11-09T18:40:21.507Z,13.90
2022-11-09T18:42:53.375Z,15.13
2022-11-09T18:45:38.406Z,15.70
2022-11-09T18:48:11.267Z,14.23
2022-11-09T18:50:40.100Z,17.13
2022-11-09T18:53:33.877Z,15.65
2022-11-09T18:56:19.335Z,15.85
2022-11-09T18:58:46.881Z,16.50
2022-11-09T19:01:14.550Z,14.90
2022-11-09T19:03:44.181Z,15.43
2022-11-09T19:06:19.370Z,14.60
2022-11-09T19:09:33.563Z,14.50
2022-11-09T19:12:06.748Z,11.52
2022-11-09T19:14:40.663Z,12.48
2022-11-09T19:17:13.298Z,12.70
2022-11-09T19:19:46.026Z,12.45
2022-11-09T19:22:28.787Z,10.45
2022-11-09T19:25:02.192Z,8.32
2022-11-09T19:30:25.594Z,10.13
2022-11-09T19:32:52.699Z,10.55
2022-11-09T19:35:34.080Z,12.33
2022-11-09T19:38:06.235Z,10.68
2022-11-09T19:40:39.847Z,8.07
2022-11-09T19:43:17.227Z,13.80
2022-11-09T19:46:07.369Z,9.88
2022-11-09T19:48:46.032Z,9.98
2022-11-09T19:51:30.436Z,10.13
2022-11-09T19:54:09.036Z,12.00
2022-11-09T19:56:52.549Z,14.00
2022-11-09T19:59:23.623Z,12.52
2022-11-09T20:04:30.102Z,10.10
2022-11-09T20:07:00.318Z,9.63
2022-11-09T20:09:33.870Z,10.20
2022-11-09T20:12:32.218Z,10.38
2022-11-09T20:15:06.322Z,11.02
2022-11-09T20:18:03.568Z,10.95
2022-11-09T20:20:39.552Z,8.55
2022-11-09T20:23:22.161Z,7.90
2022-11-09T20:26:15.049Z,9.25
2022-11-09T20:29:20.098Z,7.65
2022-11-09T20:31:54.970Z,10.40
2022-11-09T20:34:37.450Z,7.60
2022-11-09T20:37:18.450Z,10.27
2022-11-09T20:39:49.404Z,8.95
2022-11-09T20:42:23.597Z,6.90
2022-11-09T20:45:04.798Z,6.57
2022-11-09T20:48:05.125Z,7.95
2022-11-09T20:50:38.781Z,7.57
2022-11-09T20:53:09.835Z,8.35
2022-11-09T20:55:49.839Z,8.18
2022-11-09T20:58:33.438Z,9.02
2022-11-09T21:01:31.851Z,15.80
2022-11-09T21:04:04.835Z,11.68
2022-11-09T21:06:44.693Z,15.40
2022-11-09T21:09:16.832Z,13.63
2022-11-09T21:12:13.392Z,15.73
2022-11-09T21:14:48.600Z,15.65
2022-11-09T21:17:16.366Z,20.17
2022-11-09T21:19:43.638Z,16.63
2022-11-09T21:22:15.031Z,13.85
2022-11-09T21:25:13.663Z,12.30
2022-11-09T21:28:00.295Z,18.27
2022-11-09T21:30:30.454Z,12.77
2022-11-09T21:32:58.684Z,11.18
2022-11-09T21:35:31.596Z,10.75
2022-11-09T21:38:03.191Z,9.70
2022-11-09T21:40:30.295Z,11.43
2022-11-09T21:42:58.618Z,11.27
2022-11-09T21:45:29.465Z,12.27
2022-11-09T21:48:01.969Z,10.32
2022-11-09T21:50:35.887Z,9.75
2022-11-09T21:53:03.453Z,9.25
2022-11-09T21:55:57.972Z,9.88
2022-11-09T21:58:25.361Z,9.27
2022-11-09T22:01:05.661Z,9.63
2022-11-09T22:03:40.340Z,7.00
2022-11-09T22:06:19.406Z,7.30
2022-11-09T22:08:59.353Z,6.85
2022-11-09T22:11:50.007Z,8.05
2022-11-09T22:14:41.101Z,7.18
2022-11-09T22:17:08.788Z,7.20
2022-11-09T22:20:07.038Z,8.27
2022-11-09T22:22:46.951Z,9.77
2022-11-09T22:25:22.711Z,7.72
2022-11-09T22:27:49.822Z,9.03
2022-11-09T22:30:20.060Z,11.40
2022-11-09T22:32:50.371Z,9.05
2022-11-09T22:35:17.893Z,9.27
2022-11-09T22:37:45.048Z,8.10
2022-11-09T22:40:21.125Z,8.43
2022-11-09T22:43:01.085Z,10.95
2022-11-09T22:45:28.239Z,8.50
2022-11-09T22:48:05.055Z,9.00
2022-11-09T22:50:37.246Z,8.32
2022-11-09T22:53:11.507Z,11.25
2022-11-09T22:55:41.676Z,11.05
2022-11-09T22:58:14.823Z,8.85
2022-11-09T23:05:34.201Z,6.93
2022-11-09T23:08:18.696Z,6.53
2022-11-09T23:11:02.623Z,6.35
2022-11-09T23:13:44.614Z,7.75
2022-11-09T23:16:15.434Z,10.63
2022-11-09T23:19:14.441Z,9.57
2022-11-09T23:21:48.993Z,11.40
2022-11-09T23:24:40.309Z,10.10
2022-11-09T23:27:07.239Z,6.47
2022-11-09T23:29:36.938Z,6.07
2022-11-09T23:32:12.475Z,7.35
2022-11-09T23:34:40.992Z,14.07
2022-11-09T23:37:08.442Z,10.05
2022-11-09T23:39:35.389Z,7.38
2022-11-09T23:42:09.036Z,6.30
2022-11-09T23:44:35.831Z,6.57
2022-11-09T23:47:03.479Z,5.90
2022-11-09T23:49:30.396Z,8.80
2022-11-09T23:52:06.151Z,7.18
2022-11-09T23:54:47.555Z,9.02
2022-11-09T23:57:17.014Z,7.03
2022-11-09T23:59:45.229Z,5.60
